Time;durP1;ratioP1;P1;durP2;ratioP2;P2;SDS_P1;SDS_P2;PMS_P1;PMS_P2;Temp;Humidity;BMP_temperature;BMP_pressure;BME280_temperature;BME280_humidity;BME280_pressure;Samples;Min_cycle;Max_cycle;Signal;HPM_P1;HPM_P2
2022/02/22 00:00:04;;;;;;;6.47;1.60;;;;;;;;;;5045242;28;20028;-54
2022/02/22 00:02:31;;;;;;;7.97;2.35;;;;;;;;;;5045746;28;20749;-54
2022/02/22 00:04:58;;;;;;;4.85;1.80;;;;;;;;;;5047072;28;20040;-54
2022/02/22 00:07:24;;;;;;;6.07;1.70;;;;;;;;;;5046713;28;20025;-55
2022/02/22 00:09:50;;;;;;;5.78;1.70;;;;;;;;;;5047023;28;20114;-55
2022/02/22 00:12:17;;;;;;;3.88;1.70;;;;;;;;;;5045363;28;20468;-55
2022/02/22 00:14:43;;;;;;;5.68;1.83;;;;;;;;;;5047078;28;20117;-55
2022/02/22 00:17:10;;;;;;;2.88;1.23;;;;;;;;;;5046305;28;20032;-54
2022/02/22 00:19:37;;;;;;;7.35;1.85;;;;;;;;;;5047224;28;20028;-56
2022/02/22 00:22:03;;;;;;;7.45;1.80;;;;;;;;;;5051983;28;20029;-53
2022/02/22 00:24:29;;;;;;;6.68;1.77;;;;;;;;;;5065470;28;20029;-54
2022/02/22 00:26:56;;;;;;;4.80;1.35;;;;;;;;;;5059063;28;20074;-54
2022/02/22 00:29:22;;;;;;;6.68;1.75;;;;;;;;;;5049007;28;20032;-53
2022/02/22 00:31:49;;;;;;;6.03;1.42;;;;;;;;;;5048439;28;20040;-54
2022/02/22 00:34:15;;;;;;;4.63;1.83;;;;;;;;;;5048700;28;20484;-54
2022/02/22 00:36:42;;;;;;;7.95;1.90;;;;;;;;;;5048912;28;20021;-54
2022/02/22 00:39:08;;;;;;;8.73;1.85;;;;;;;;;;5063546;28;20020;-54
2022/02/22 00:41:34;;;;;;;6.22;1.67;;;;;;;;;;5052394;28;20037;-54
2022/02/22 00:44:00;;;;;;;5.22;1.67;;;;;;;;;;5048164;28;20025;-54
2022/02/22 00:46:26;;;;;;;7.68;1.75;;;;;;;;;;5048161;28;20025;-53
2022/02/22 00:48:52;;;;;;;8.30;2.13;;;;;;;;;;5060465;28;20454;-54
2022/02/22 00:51:18;;;;;;;5.70;1.80;;;;;;;;;;5056287;28;20044;-53
2022/02/22 00:53:44;;;;;;;8.05;1.92;;;;;;;;;;5048125;28;20052;-54
2022/02/22 00:56:10;;;;;;;9.25;2.50;;;;;;;;;;5048408;28;20556;-54
2022/02/22 00:58:36;;;;;;;8.75;2.05;;;;;;;;;;5048207;28;20526;-54
2022/02/22 01:01:02;;;;;;;10.80;2.47;;;;;;;;;;5047604;28;20524;-54
2022/02/22 01:03:29;;;;;;;8.82;2.55;;;;;;;;;;5048349;28;20037;-54
2022/02/22 01:05:55;;;;;;;7.70;1.95;;;;;;;;;;5048167;28;20467;-54
2022/02/22 01:08:21;;;;;;;5.57;2.65;;;;;;;;;;5049362;28;20420;-54
2022/02/22 01:10:47;;;;;;;7.70;2.35;;;;;;;;;;5048115;28;20040;-54
2022/02/22 01:13:14;;;;;;;8.10;2.40;;;;;;;;;;5047907;28;20102;-53
2022/02/22 01:15:40;;;;;;;6.72;2.28;;;;;;;;;;5048486;28;20021;-55
2022/02/22 01:18:06;;;;;;;8.02;2.10;;;;;;;;;;5053206;28;20086;-54
2022/02/22 01:20:32;;;;;;;12.48;2.95;;;;;;;;;;5068254;28;20468;-54
2022/02/22 01:22:59;;;;;;;12.50;2.95;;;;;;;;;;5067849;28;20039;-53
2022/02/22 01:25:28;;;;;;;9.00;2.60;;;;;;;;;;5068036;28;20503;-53
2022/02/22 01:27:54;;;;;;;14.82;2.95;;;;;;;;;;5061150;28;20074;-52
2022/02/22 01:30:21;;;;;;;11.25;3.15;;;;;;;;;;5047836;28;20408;-53
2022/02/22 01:32:47;;;;;;;12.20;2.90;;;;;;;;;;5047889;28;20064;-52
2022/02/22 01:35:13;;;;;;;9.77;2.78;;;;;;;;;;5047181;28;20044;-55
2022/02/22 01:37:39;;;;;;;12.10;3.10;;;;;;;;;;5049832;28;20047;-54
2022/02/22 01:40:06;;;;;;;8.73;2.65;;;;;;;;;;5065781;28;20488;-54
2022/02/22 01:42:33;;;;;;;7.90;2.38;;;;;;;;;;5066217;28;20031;-53
2022/02/22 01:44:59;;;;;;;7.85;2.80;;;;;;;;;;5066252;28;20025;-54
2022/02/22 01:47:25;;;;;;;7.68;1.98;;;;;;;;;;5063347;28;20059;-53
2022/02/22 01:49:51;;;;;;;4.70;1.80;;;;;;;;;;5045951;28;20051;-55
2022/02/22 01:52:18;;;;;;;4.40;1.60;;;;;;;;;;5045841;28;20030;-53
2022/02/22 01:54:44;;;;;;;5.07;1.58;;;;;;;;;;5046065;28;20094;-52
2022/02/22 01:57:11;;;;;;;4.63;1.48;;;;;;;;;;5045921;28;20087;-53
2022/02/22 01:59:37;;;;;;;7.00;1.88;;;;;;;;;;5065970;28;20108;-54
2022/02/22 02:02:03;;;;;;;9.30;2.47;;;;;;;;;;5065620;28;20041;-53
2022/02/22 02:04:29;;;;;;;6.82;2.10;;;;;;;;;;5065977;28;20032;-54
2022/02/22 02:06:57;;;;;;;7.97;2.20;;;;;;;;;;5065936;28;20025;-54
2022/02/22 02:09:24;;;;;;;9.52;2.10;;;;;;;;;;5064425;28;20040;-54
2022/02/22 02:11:53;;;;;;;10.38;2.75;;;;;;;;;;5065809;28;20040;-54
2022/02/22 02:14:21;;;;;;;6.47;2.40;;;;;;;;;;5065944;28;20570;-54
2022/02/22 02:16:47;;;;;;;6.32;2.25;;;;;;;;;;5065834;28;20033;-54
2022/02/22 02:19:14;;;;;;;7.95;1.80;;;;;;;;;;5064308;28;20845;-54
2022/02/22 02:21:41;;;;;;;4.05;1.30;;;;;;;;;;5066174;28;20032;-54
2022/02/22 02:24:18;;;;;;;5.20;1.67;;;;;;;;;;5058938;28;20037;-54
2022/02/22 02:26:45;;;;;;;4.90;1.50;;;;;;;;;;5060919;28;20040;-54
2022/02/22 02:29:12;;;;;;;3.92;1.55;;;;;;;;;;5065663;28;20040;-55
2022/02/22 02:31:39;;;;;;;5.65;1.60;;;;;;;;;;5065846;28;20055;-55
2022/02/22 02:34:06;;;;;;;5.07;1.80;;;;;;;;;;5065444;28;20020;-55
2022/02/22 02:36:33;;;;;;;5.05;1.75;;;;;;;;;;5064661;28;20557;-53
2022/02/22 02:39:00;;;;;;;4.53;1.75;;;;;;;;;;5065536;28;20098;-55
2022/02/22 02:41:26;;;;;;;4.75;1.55;;;;;;;;;;5065823;28;20025;-54
2022/02/22 02:43:52;;;;;;;4.15;1.38;;;;;;;;;;5065812;28;20225;-55
2022/02/22 02:46:18;;;;;;;4.28;1.60;;;;;;;;;;5065459;28;20111;-55
2022/02/22 02:48:44;;;;;;;6.00;1.85;;;;;;;;;;5069904;28;20111;-55
2022/02/22 02:51:11;;;;;;;9.15;1.83;;;;;;;;;;5069050;28;20104;-55
2022/02/22 02:53:37;;;;;;;4.20;1.65;;;;;;;;;;5069502;28;20020;-55
2022/02/22 02:56:04;;;;;;;7.85;1.90;;;;;;;;;;5067133;28;20029;-53
2022/02/22 02:58:30;;;;;;;5.22;1.70;;;;;;;;;;5069191;28;20036;-54
2022/02/22 03:00:55;;;;;;;4.38;1.75;;;;;;;;;;5068225;28;20021;-53
2022/02/22 03:03:22;;;;;;;5.15;1.65;;;;;;;;;;5068093;28;20035;-55
2022/02/22 03:05:49;;;;;;;7.32;2.05;;;;;;;;;;5067964;28;20077;-54
2022/02/22 03:08:14;;;;;;;5.18;1.55;;;;;;;;;;5068636;28;20419;-55
2022/02/22 03:10:40;;;;;;;5.90;1.50;;;;;;;;;;5068857;28;20035;-55
2022/02/22 03:13:08;;;;;;;6.07;1.80;;;;;;;;;;5068788;28;20039;-54
2022/02/22 03:15:35;;;;;;;4.13;1.35;;;;;;;;;;5067522;28;20025;-54
2022/02/22 03:18:01;;;;;;;5.03;1.67;;;;;;;;;;5067526;28;20507;-55
2022/02/22 03:20:27;;;;;;;6.32;1.75;;;;;;;;;;5068648;28;20016;-54
2022/02/22 03:22:54;;;;;;;6.72;2.22;;;;;;;;;;5067622;28;20137;-55
2022/02/22 03:25:21;;;;;;;4.40;1.80;;;;;;;;;;5065776;28;20021;-53
2022/02/22 03:27:47;;;;;;;6.45;1.83;;;;;;;;;;5047358;28;20036;-54
2022/02/22 03:30:13;;;;;;;3.55;1.50;;;;;;;;;;5048397;28;20488;-54
2022/02/22 03:32:39;;;;;;;4.43;1.70;;;;;;;;;;5048977;28;20496;-54
2022/02/22 03:35:06;;;;;;;4.15;1.73;;;;;;;;;;5059951;28;20032;-54
2022/02/22 03:37:32;;;;;;;5.25;1.75;;;;;;;;;;5048415;28;20029;-54
2022/02/22 03:39:58;;;;;;;5.88;2.20;;;;;;;;;;5048003;28;20392;-55
2022/02/22 03:42:25;;;;;;;5.20;2.03;;;;;;;;;;5048337;28;20037;-54
2022/02/22 03:44:51;;;;;;;3.55;1.42;;;;;;;;;;5047971;28;20558;-55
2022/02/22 03:47:17;;;;;;;4.32;1.65;;;;;;;;;;5065443;28;20029;-54
2022/02/22 03:49:44;;;;;;;5.43;1.80;;;;;;;;;;5067063;28;20036;-54
2022/02/22 03:52:10;;;;;;;4.03;1.45;;;;;;;;;;5067940;28;20036;-54
2022/02/22 03:54:37;;;;;;;6.95;2.05;;;;;;;;;;5066963;28;20404;-55
2022/02/22 03:57:03;;;;;;;5.50;2.25;;;;;;;;;;5050026;28;20131;-55
2022/02/22 03:59:30;;;;;;;6.90;1.70;;;;;;;;;;5057227;28;20082;-55
2022/02/22 04:01:56;;;;;;;5.60;1.77;;;;;;;;;;5067518;28;20389;-54
2022/02/22 04:04:22;;;;;;;6.10;1.70;;;;;;;;;;5067963;28;20028;-55
2022/02/22 04:06:48;;;;;;;6.40;2.00;;;;;;;;;;5066408;28;20032;-53
2022/02/22 04:09:15;;;;;;;5.68;1.98;;;;;;;;;;5067406;28;20033;-53
2022/02/22 04:11:41;;;;;;;5.72;1.90;;;;;;;;;;5067760;28;20032;-55
2022/02/22 04:14:07;;;;;;;3.28;1.20;;;;;;;;;;5067531;28;20032;-54
2022/02/22 04:16:33;;;;;;;5.00;1.60;;;;;;;;;;5066582;28;20082;-54
2022/02/22 04:18:59;;;;;;;8.63;2.40;;;;;;;;;;5067245;28;20028;-55
2022/02/22 04:21:25;;;;;;;5.70;1.90;;;;;;;;;;5067524;28;20035;-55
2022/02/22 04:23:52;;;;;;;5.32;1.80;;;;;;;;;;5067295;28;20024;-54
2022/02/22 04:26:18;;;;;;;6.05;1.88;;;;;;;;;;5066127;28;20036;-54
2022/02/22 04:28:44;;;;;;;5.10;1.75;;;;;;;;;;5067156;28;20031;-54
2022/02/22 04:31:10;;;;;;;6.53;2.20;;;;;;;;;;5066873;28;20036;-54
2022/02/22 04:33:36;;;;;;;5.35;1.92;;;;;;;;;;5065711;28;20376;-54
2022/02/22 04:36:02;;;;;;;10.80;2.95;;;;;;;;;;5057826;28;20071;-55
2022/02/22 04:38:28;;;;;;;9.10;3.13;;;;;;;;;;5047444;28;20028;-55
2022/02/22 04:40:54;;;;;;;7.90;2.92;;;;;;;;;;5047082;28;20029;-55
2022/02/22 04:43:20;;;;;;;4.60;2.10;;;;;;;;;;5050142;28;20103;-53
2022/02/22 04:45:47;;;;;;;7.97;2.50;;;;;;;;;;5066730;28;20033;-55
2022/02/22 04:48:14;;;;;;;6.53;2.50;;;;;;;;;;5066642;28;20423;-55
2022/02/22 04:50:40;;;;;;;7.20;2.00;;;;;;;;;;5067112;28;20036;-54
2022/02/22 04:53:09;;;;;;;4.47;1.65;;;;;;;;;;5065825;28;20021;-55
2022/02/22 04:55:36;;;;;;;5.95;1.83;;;;;;;;;;5067020;28;20020;-55
2022/02/22 04:58:02;;;;;;;6.07;2.00;;;;;;;;;;5066307;28;20086;-55
2022/02/22 05:00:28;;;;;;;5.88;1.85;;;;;;;;;;5066792;28;20039;-55
2022/02/22 05:02:55;;;;;;;4.55;1.50;;;;;;;;;;5066292;28;20023;-55
2022/02/22 05:05:22;;;;;;;5.28;1.75;;;;;;;;;;5046873;28;20033;-55
2022/02/22 05:07:48;;;;;;;5.43;1.67;;;;;;;;;;5047258;28;20431;-54
2022/02/22 05:10:15;;;;;;;4.50;1.50;;;;;;;;;;5051806;28;20032;-55
2022/02/22 05:12:41;;;;;;;4.80;1.77;;;;;;;;;;5047296;28;20567;-55
2022/02/22 05:15:07;;;;;;;4.60;1.60;;;;;;;;;;5046643;28;20024;-54
2022/02/22 05:17:33;;;;;;;4.85;1.92;;;;;;;;;;5046856;28;20025;-54
2022/02/22 05:20:00;;;;;;;8.90;2.00;;;;;;;;;;5056724;28;20028;-55
2022/02/22 05:22:26;;;;;;;6.22;1.70;;;;;;;;;;5066608;28;20063;-54
2022/02/22 05:24:52;;;;;;;4.22;1.40;;;;;;;;;;5066632;28;20029;-54
2022/02/22 05:27:19;;;;;;;5.97;1.90;;;;;;;;;;5066033;28;20082;-55
2022/02/22 05:29:45;;;;;;;7.25;1.70;;;;;;;;;;5056998;28;20075;-55
2022/02/22 05:32:12;;;;;;;6.72;2.05;;;;;;;;;;5046065;28;20403;-54
2022/02/22 05:34:38;;;;;;;4.90;1.65;;;;;;;;;;5046866;28;20036;-55
2022/02/22 05:37:05;;;;;;;6.30;1.65;;;;;;;;;;5045942;28;20439;-55
2022/02/22 05:39:31;;;;;;;5.97;1.73;;;;;;;;;;5050202;28;20621;-54
2022/02/22 05:41:58;;;;;;;3.38;1.65;;;;;;;;;;5065974;28;20035;-55
2022/02/22 05:44:25;;;;;;;4.57;1.70;;;;;;;;;;5066104;28;20021;-53
2022/02/22 05:46:51;;;;;;;4.68;1.80;;;;;;;;;;5066271;28;20036;-54
2022/02/22 05:49:16;;;;;;;6.82;2.38;;;;;;;;;;5064704;28;20580;-54
2022/02/22 05:51:44;;;;;;;7.47;2.47;;;;;;;;;;5066043;28;20036;-55
2022/02/22 05:54:10;;;;;;;14.38;3.80;;;;;;;;;;5066140;28;20526;-54
2022/02/22 05:56:37;;;;;;;12.25;3.78;;;;;;;;;;5066579;28;20052;-55
2022/02/22 05:59:03;;;;;;;14.38;5.40;;;;;;;;;;5050434;28;20029;-55
2022/02/22 06:01:29;;;;;;;15.82;5.28;;;;;;;;;;5065963;28;20115;-55
2022/02/22 06:03:55;;;;;;;14.35;5.45;;;;;;;;;;5065761;28;20499;-55
2022/02/22 06:06:21;;;;;;;15.18;5.80;;;;;;;;;;5054443;28;20094;-55
2022/02/22 06:08:47;;;;;;;16.08;5.85;;;;;;;;;;5045986;28;20029;-54
2022/02/22 06:11:13;;;;;;;15.73;6.05;;;;;;;;;;5061990;28;20040;-55
2022/02/22 06:13:39;;;;;;;16.35;6.50;;;;;;;;;;5066326;28;20028;-55
2022/02/22 06:16:05;;;;;;;17.83;6.95;;;;;;;;;;5064441;28;20388;-55
2022/02/22 06:18:31;;;;;;;15.43;5.97;;;;;;;;;;5049875;28;20052;-54
2022/02/22 06:20:57;;;;;;;13.07;4.90;;;;;;;;;;5048627;28;20430;-55
2022/02/22 06:23:23;;;;;;;14.48;5.32;;;;;;;;;;5051260;28;20526;-55
2022/02/22 06:25:49;;;;;;;12.88;4.75;;;;;;;;;;5051360;28;20025;-55
2022/02/22 06:28:16;;;;;;;14.70;5.18;;;;;;;;;;5052513;28;20025;-54
2022/02/22 06:30:42;;;;;;;12.75;4.72;;;;;;;;;;5069596;28;20029;-55
2022/02/22 06:33:08;;;;;;;11.05;4.82;;;;;;;;;;5064409;28;20541;-55
2022/02/22 06:35:34;;;;;;;11.18;4.25;;;;;;;;;;5050754;28;20040;-55
2022/02/22 06:38:00;;;;;;;10.73;4.03;;;;;;;;;;5058003;28;20025;-54
2022/02/22 06:40:27;;;;;;;11.10;3.15;;;;;;;;;;5057727;28;20025;-55
2022/02/22 06:42:54;;;;;;;11.98;3.63;;;;;;;;;;5068801;28;20043;-55
2022/02/22 06:45:21;;;;;;;7.43;2.60;;;;;;;;;;5058169;28;20144;-55
2022/02/22 06:47:47;;;;;;;9.50;2.95;;;;;;;;;;5070782;28;20040;-55
2022/02/22 06:50:14;;;;;;;6.68;2.80;;;;;;;;;;5060220;28;20052;-55
2022/02/22 06:52:40;;;;;;;9.32;2.90;;;;;;;;;;5050933;28;20041;-55
2022/02/22 06:55:10;;;;;;;5.70;2.35;;;;;;;;;;5050959;28;20025;-55
2022/02/22 06:57:37;;;;;;;7.47;2.28;;;;;;;;;;5050947;28;20056;-55
2022/02/22 07:00:05;;;;;;;5.22;2.25;;;;;;;;;;5050251;28;20104;-55
2022/02/22 07:02:32;;;;;;;8.77;2.63;;;;;;;;;;5061926;28;20036;-55
2022/02/22 07:04:58;;;;;;;5.55;2.15;;;;;;;;;;5070233;28;20030;-55
2022/02/22 07:07:25;;;;;;;5.50;2.20;;;;;;;;;;5070522;28;20056;-55
2022/02/22 07:09:51;;;;;;;7.18;2.25;;;;;;;;;;5070313;28;20595;-55
2022/02/22 07:12:17;;;;;;;7.43;2.42;;;;;;;;;;5068613;28;20036;-54
2022/02/22 07:14:43;;;;;;;6.65;2.38;;;;;;;;;;5056862;28;20095;-55
2022/02/22 07:17:10;;;;;;;8.75;2.50;;;;;;;;;;5068039;28;20499;-55
2022/02/22 07:19:36;;;;;;;9.27;2.47;;;;;;;;;;5068745;28;20104;-55
2022/02/22 07:22:02;;;;;;;5.47;2.55;;;;;;;;;;5068333;28;20037;-55
2022/02/22 07:24:28;;;;;;;7.18;2.72;;;;;;;;;;5068753;28;20055;-55
2022/02/22 07:26:55;;;;;;;7.20;2.78;;;;;;;;;;5068340;28;20515;-54
2022/02/22 07:29:22;;;;;;;8.27;3.03;;;;;;;;;;5068560;28;20025;-55
2022/02/22 07:31:48;;;;;;;6.72;2.33;;;;;;;;;;5067619;28;20159;-55
2022/02/22 07:34:14;;;;;;;8.85;2.75;;;;;;;;;;5068081;28;20048;-55
2022/02/22 07:36:40;;;;;;;7.40;2.45;;;;;;;;;;5068700;28;20024;-55
2022/02/22 07:39:08;;;;;;;5.47;2.17;;;;;;;;;;5056372;28;20056;-55
2022/02/22 07:41:36;;;;;;;7.97;2.40;;;;;;;;;;5069605;28;20062;-55
2022/02/22 07:44:02;;;;;;;5.35;2.30;;;;;;;;;;5064104;28;20029;-55
2022/02/22 07:46:28;;;;;;;5.70;2.08;;;;;;;;;;5069639;28;20036;-55
2022/02/22 07:48:54;;;;;;;8.18;2.40;;;;;;;;;;5069172;28;20029;-55
2022/02/22 07:51:20;;;;;;;7.43;2.40;;;;;;;;;;5069329;28;20519;-55
2022/02/22 07:53:47;;;;;;;6.75;2.42;;;;;;;;;;5069274;28;20029;-55
2022/02/22 07:56:15;;;;;;;7.82;2.45;;;;;;;;;;5069209;28;20039;-54
2022/02/22 07:58:41;;;;;;;7.03;2.17;;;;;;;;;;5069285;28;20542;-55
2022/02/22 08:01:07;;;;;;;6.45;2.58;;;;;;;;;;5069275;28;20486;-55
2022/02/22 08:03:34;;;;;;;5.50;2.47;;;;;;;;;;5052879;28;20025;-55
2022/02/22 08:06:00;;;;;;;5.88;2.17;;;;;;;;;;5050362;28;20060;-55
2022/02/22 08:08:27;;;;;;;5.80;2.60;;;;;;;;;;5050515;28;20040;-55
2022/02/22 08:10:53;;;;;;;5.90;2.30;;;;;;;;;;5049098;28;20084;-55
2022/02/22 08:13:19;;;;;;;5.07;2.05;;;;;;;;;;5049084;28;20588;-55
2022/02/22 08:15:45;;;;;;;5.80;2.10;;;;;;;;;;5049146;28;20578;-55
2022/02/22 08:18:11;;;;;;;7.07;2.17;;;;;;;;;;5068910;28;20039;-54
2022/02/22 08:20:37;;;;;;;4.38;2.00;;;;;;;;;;5069354;28;20059;-55
2022/02/22 08:23:03;;;;;;;4.82;1.70;;;;;;;;;;5066948;28;20494;-55
2022/02/22 08:25:29;;;;;;;5.43;2.10;;;;;;;;;;5049819;28;20036;-55
2022/02/22 08:27:55;;;;;;;4.38;1.70;;;;;;;;;;5065440;28;20105;-55
2022/02/22 08:30:21;;;;;;;6.15;1.83;;;;;;;;;;5067220;28;20024;-55
2022/02/22 08:32:49;;;;;;;5.45;1.85;;;;;;;;;;5054528;28;20385;-55
2022/02/22 08:35:15;;;;;;;4.97;1.50;;;;;;;;;;5047059;28;20071;-55
2022/02/22 08:37:41;;;;;;;3.53;1.40;;;;;;;;;;5047573;28;20025;-55
2022/02/22 08:40:07;;;;;;;4.28;1.33;;;;;;;;;;5050322;28;20035;-55
2022/02/22 08:42:34;;;;;;;6.32;1.77;;;;;;;;;;5048836;28;20044;-55
2022/02/22 08:45:00;;;;;;;6.43;1.98;;;;;;;;;;5050870;28;20515;-55
2022/02/22 08:47:27;;;;;;;9.35;1.92;;;;;;;;;;5048909;28;20025;-55
2022/02/22 08:49:53;;;;;;;8.05;2.17;;;;;;;;;;5051576;28;20028;-54
2022/02/22 08:52:19;;;;;;;5.25;1.67;;;;;;;;;;5050566;28;20037;-55
2022/02/22 08:54:46;;;;;;;5.22;1.70;;;;;;;;;;5066675;28;20384;-55
2022/02/22 08:57:12;;;;;;;7.00;2.55;;;;;;;;;;5059360;28;20027;-55
2022/02/22 08:59:38;;;;;;;7.10;2.28;;;;;;;;;;5056356;28;20024;-55
2022/02/22 09:02:04;;;;;;;7.28;1.90;;;;;;;;;;5067773;28;20028;-55
2022/02/22 09:04:31;;;;;;;5.03;1.88;;;;;;;;;;5068225;28;20404;-55
2022/02/22 09:06:58;;;;;;;4.30;1.80;;;;;;;;;;5068047;28;20025;-55
2022/02/22 09:09:24;;;;;;;6.35;2.17;;;;;;;;;;5067862;28;20021;-55
2022/02/22 09:11:51;;;;;;;3.53;1.50;;;;;;;;;;5057766;28;20028;-55
2022/02/22 09:14:21;;;;;;;3.72;1.60;;;;;;;;;;5059673;28;20052;-55
2022/02/22 09:16:47;;;;;;;6.70;1.88;;;;;;;;;;5063512;28;20027;-55
2022/02/22 09:19:13;;;;;;;5.97;1.60;;;;;;;;;;5067531;28;20036;-55
2022/02/22 09:21:39;;;;;;;7.45;1.90;;;;;;;;;;5068191;28;20102;-54
2022/02/22 09:24:05;;;;;;;6.97;2.00;;;;;;;;;;5067723;28;20060;-55
2022/02/22 09:26:31;;;;;;;5.00;1.90;;;;;;;;;;5067680;28;20040;-54
2022/02/22 09:28:58;;;;;;;4.75;1.95;;;;;;;;;;5067325;28;20108;-55
2022/02/22 09:31:25;;;;;;;5.03;1.80;;;;;;;;;;5067786;28;20108;-55
2022/02/22 09:33:51;;;;;;;5.22;1.42;;;;;;;;;;5065626;28;20037;-55
2022/02/22 09:36:17;;;;;;;5.85;2.08;;;;;;;;;;5047504;28;20104;-55
2022/02/22 09:38:43;;;;;;;5.60;1.52;;;;;;;;;;5047691;28;20116;-55
2022/02/22 09:41:10;;;;;;;4.82;1.40;;;;;;;;;;5047117;28;20427;-55
2022/02/22 09:43:36;;;;;;;5.97;1.90;;;;;;;;;;5051335;28;20039;-55
2022/02/22 09:46:04;;;;;;;5.80;1.70;;;;;;;;;;5060872;28;20104;-55
2022/02/22 09:48:31;;;;;;;5.32;1.63;;;;;;;;;;5055524;28;20037;-55
2022/02/22 09:50:58;;;;;;;3.03;1.27;;;;;;;;;;5046250;28;20033;-55
2022/02/22 09:53:24;;;;;;;6.93;1.70;;;;;;;;;;5049669;28;20061;-55
2022/02/22 09:55:50;;;;;;;5.43;1.75;;;;;;;;;;5049094;28;20036;-55
2022/02/22 09:58:17;;;;;;;4.45;1.60;;;;;;;;;;5051337;28;20040;-55
2022/02/22 10:00:43;;;;;;;5.10;1.38;;;;;;;;;;5051478;28;20025;-55
2022/02/22 10:03:17;;;;;;;3.55;1.52;;;;;;;;;;5051789;28;20034;-55
2022/02/22 10:06:04;;;;;;;5.20;1.67;;;;;;;;;;5051532;28;20033;-55
2022/02/22 10:08:32;;;;;;;5.45;1.70;;;;;;;;;;5051532;28;20021;-54
2022/02/22 10:11:02;;;;;;;6.15;1.95;;;;;;;;;;5070142;28;20058;-55
2022/02/22 10:13:29;;;;;;;4.25;1.60;;;;;;;;;;5071279;28;20570;-55
2022/02/22 10:15:55;;;;;;;5.93;1.85;;;;;;;;;;5070809;28;20037;-55
2022/02/22 10:18:22;;;;;;;5.68;2.00;;;;;;;;;;5071266;28;20049;-55
2022/02/22 10:20:49;;;;;;;6.63;2.42;;;;;;;;;;5070541;28;20500;-55
2022/02/22 10:23:15;;;;;;;6.68;1.67;;;;;;;;;;5070719;28;20021;-56
2022/02/22 10:25:42;;;;;;;8.43;2.80;;;;;;;;;;5071033;28;20085;-53
2022/02/22 10:28:15;;;;;;;8.63;3.08;;;;;;;;;;5069794;28;20024;-55
2022/02/22 10:30:43;;;;;;;8.38;2.38;;;;;;;;;;5050872;28;20028;-55
2022/02/22 10:33:11;;;;;;;8.50;2.88;;;;;;;;;;5050934;28;20028;-55
2022/02/22 10:35:37;;;;;;;4.95;1.90;;;;;;;;;;5067440;28;20044;-55
2022/02/22 10:38:17;;;;;;;6.55;2.33;;;;;;;;;;5070427;28;20056;-55
2022/02/22 10:40:50;;;;;;;5.47;1.67;;;;;;;;;;5069234;28;20448;-56
2022/02/22 10:43:20;;;;;;;5.83;1.57;;;;;;;;;;5070625;28;20028;-56
2022/02/22 10:45:53;;;;;;;7.35;2.05;;;;;;;;;;5057731;28;20029;-56
2022/02/22 10:48:25;;;;;;;5.80;1.80;;;;;;;;;;5070787;28;20028;-55
2022/02/22 10:50:52;;;;;;;6.15;2.05;;;;;;;;;;5069193;28;20146;-54
2022/02/22 10:53:18;;;;;;;6.75;1.70;;;;;;;;;;5060490;28;20559;-55
2022/02/22 10:55:45;;;;;;;7.30;1.80;;;;;;;;;;5062152;28;20096;-55
2022/02/22 10:58:11;;;;;;;4.78;1.80;;;;;;;;;;5049976;28;20132;-55
2022/02/22 11:00:38;;;;;;;6.35;1.92;;;;;;;;;;5050416;28;20013;-55
2022/02/22 11:03:05;;;;;;;4.30;1.70;;;;;;;;;;5050262;28;20104;-55
2022/02/22 11:05:31;;;;;;;8.90;2.30;;;;;;;;;;5066292;28;20480;-55
2022/02/22 11:07:57;;;;;;;9.65;2.50;;;;;;;;;;5068920;28;20077;-56
2022/02/22 11:10:28;;;;;;;8.13;2.95;;;;;;;;;;5059870;28;20487;-56
2022/02/22 11:12:59;;;;;;;9.43;2.95;;;;;;;;;;5049671;28;20082;-54
2022/02/22 11:15:40;;;;;;;6.88;2.33;;;;;;;;;;5052107;28;20028;-55
2022/02/22 11:18:17;;;;;;;5.72;2.08;;;;;;;;;;5069867;28;20419;-58
2022/02/22 11:20:43;;;;;;;12.80;3.03;;;;;;;;;;5069849;28;20028;-55
2022/02/22 11:23:11;;;;;;;7.72;2.40;;;;;;;;;;5060398;28;20535;-55
2022/02/22 11:25:38;;;;;;;6.65;2.42;;;;;;;;;;5063606;28;20016;-55
2022/02/22 11:28:04;;;;;;;6.25;2.03;;;;;;;;;;5049394;28;20382;-55
2022/02/22 11:30:31;;;;;;;11.98;2.50;;;;;;;;;;5050844;28;20504;-55
2022/02/22 11:33:03;;;;;;;8.82;2.88;;;;;;;;;;5050717;28;20041;-55
2022/02/22 11:35:30;;;;;;;6.68;2.35;;;;;;;;;;5065047;28;20033;-53
2022/02/22 11:38:07;;;;;;;8.43;2.45;;;;;;;;;;5068389;28;20025;-55
2022/02/22 11:40:34;;;;;;;5.82;2.28;;;;;;;;;;5069280;28;20107;-55
2022/02/22 11:43:13;;;;;;;6.22;1.77;;;;;;;;;;5069065;28;20036;-55
2022/02/22 11:45:40;;;;;;;5.32;2.08;;;;;;;;;;5064615;28;20028;-55
2022/02/22 11:48:22;;;;;;;4.03;1.48;;;;;;;;;;5056003;28;20032;-55
2022/02/22 11:50:51;;;;;;;3.42;1.45;;;;;;;;;;5061036;28;20107;-55
2022/02/22 11:53:22;;;;;;;3.50;1.45;;;;;;;;;;5055839;28;20025;-55
2022/02/22 11:55:49;;;;;;;3.88;1.45;;;;;;;;;;5067728;28;20036;-55
2022/02/22 11:58:21;;;;;;;3.45;1.40;;;;;;;;;;5065353;28;20027;-55
2022/02/22 12:00:48;;;;;;;5.28;1.63;;;;;;;;;;5069943;28;20043;-55
2022/02/22 12:03:15;;;;;;;4.88;1.60;;;;;;;;;;5069339;28;20103;-55
2022/02/22 12:05:42;;;;;;;3.63;1.30;;;;;;;;;;5070044;28;20138;-55
2022/02/22 12:08:08;;;;;;;4.60;1.05;;;;;;;;;;5067455;28;20073;-55
2022/02/22 12:10:43;;;;;;;4.80;1.17;;;;;;;;;;5052767;28;20032;-55
2022/02/22 12:13:10;;;;;;;1.73;0.95;;;;;;;;;;5066134;28;20041;-54
2022/02/22 12:15:36;;;;;;;3.92;1.27;;;;;;;;;;5051301;28;20025;-55
2022/02/22 12:18:03;;;;;;;5.55;1.35;;;;;;;;;;5052754;28;20035;-55
2022/02/22 12:20:30;;;;;;;5.13;1.30;;;;;;;;;;5069568;28;20024;-55
2022/02/22 12:22:58;;;;;;;3.65;1.42;;;;;;;;;;5059754;28;20037;-55
2022/02/22 12:25:28;;;;;;;6.85;1.92;;;;;;;;;;5055370;28;20032;-55
2022/02/22 12:28:00;;;;;;;6.60;1.63;;;;;;;;;;5053581;28;20033;-55
2022/02/22 12:30:33;;;;;;;3.83;2.20;;;;;;;;;;5055244;28;20025;-55
2022/02/22 12:32:59;;;;;;;4.90;1.40;;;;;;;;;;5054223;28;20032;-56
2022/02/22 12:35:36;;;;;;;5.88;2.03;;;;;;;;;;5075740;28;20024;-56
2022/02/22 12:38:11;;;;;;;4.15;1.30;;;;;;;;;;5050733;28;20040;-56
2022/02/22 12:40:37;;;;;;;4.85;1.48;;;;;;;;;;5049647;28;20104;-56
2022/02/22 12:43:08;;;;;;;3.00;1.20;;;;;;;;;;5062660;28;20047;-56
2022/02/22 12:45:38;;;;;;;3.97;1.40;;;;;;;;;;5089877;28;20036;-56
2022/02/22 12:48:05;;;;;;;3.15;1.50;;;;;;;;;;5055732;28;20033;-56
2022/02/22 12:50:33;;;;;;;4.45;1.40;;;;;;;;;;5058151;28;20033;-56
2022/02/22 12:52:59;;;;;;;6.32;1.77;;;;;;;;;;5057468;28;20028;-56
2022/02/22 12:55:26;;;;;;;4.03;1.50;;;;;;;;;;5048361;28;20071;-56
2022/02/22 12:58:03;;;;;;;4.88;1.70;;;;;;;;;;5067190;28;20032;-57
2022/02/22 13:00:30;;;;;;;4.40;1.40;;;;;;;;;;5060505;28;20032;-57
2022/02/22 13:03:03;;;;;;;3.33;1.38;;;;;;;;;;5079256;28;20024;-55
2022/02/22 13:05:29;;;;;;;3.63;1.45;;;;;;;;;;5072985;28;20032;-55
2022/02/22 13:07:55;;;;;;;3.72;1.42;;;;;;;;;;5051638;28;20067;-55
2022/02/22 13:10:23;;;;;;;6.68;1.40;;;;;;;;;;5067289;28;20029;-56
2022/02/22 13:12:58;;;;;;;3.70;1.27;;;;;;;;;;5067484;28;20056;-55
2022/02/22 13:15:25;;;;;;;4.95;1.95;;;;;;;;;;5067688;28;20021;-56
2022/02/22 13:17:54;;;;;;;2.53;1.38;;;;;;;;;;5064513;28;20385;-56
2022/02/22 13:20:20;;;;;;;3.55;1.17;;;;;;;;;;5063743;28;20404;-56
2022/02/22 13:22:46;;;;;;;3.40;1.17;;;;;;;;;;5066097;28;20032;-56
2022/02/22 13:25:12;;;;;;;4.35;1.40;;;;;;;;;;5065652;28;20124;-55
2022/02/22 13:27:40;;;;;;;2.65;0.98;;;;;;;;;;5065650;28;20025;-56
2022/02/22 13:30:06;;;;;;;3.70;1.45;;;;;;;;;;5065351;28;20040;-55
2022/02/22 13:32:34;;;;;;;3.42;1.40;;;;;;;;;;5065907;28;20431;-55
2022/02/22 13:35:01;;;;;;;4.13;1.45;;;;;;;;;;5065197;28;20024;-55
2022/02/22 13:37:39;;;;;;;3.13;1.30;;;;;;;;;;5066821;28;20158;-56
2022/02/22 13:40:10;;;;;;;3.47;1.55;;;;;;;;;;5065634;28;20032;-56
2022/02/22 13:42:37;;;;;;;3.88;1.60;;;;;;;;;;5060573;28;20035;-56
2022/02/22 13:45:04;;;;;;;4.97;1.55;;;;;;;;;;5065464;28;20036;-56
2022/02/22 13:47:31;;;;;;;3.65;1.55;;;;;;;;;;5065050;28;20043;-56
2022/02/22 13:49:57;;;;;;;6.32;1.95;;;;;;;;;;5065621;28;20048;-56
2022/02/22 13:52:24;;;;;;;4.10;1.70;;;;;;;;;;5062003;28;20044;-56
2022/02/22 13:54:52;;;;;;;3.53;1.60;;;;;;;;;;5060483;28;20042;-56
2022/02/22 13:57:19;;;;;;;7.03;2.92;;;;;;;;;;5058511;28;20032;-56
2022/02/22 13:59:46;;;;;;;9.88;2.55;;;;;;;;;;5065729;28;20477;-56
2022/02/22 14:02:29;;;;;;;7.10;2.67;;;;;;;;;;5064716;28;21045;-56
2022/02/22 14:04:56;;;;;;;5.85;1.88;;;;;;;;;;5062778;28;20033;-56
2022/02/22 14:07:22;;;;;;;5.90;2.10;;;;;;;;;;5064786;28;20021;-56
2022/02/22 14:09:48;;;;;;;3.65;1.55;;;;;;;;;;5067243;28;20499;-56
2022/02/22 14:12:15;;;;;;;6.68;1.70;;;;;;;;;;5066617;28;20059;-55
2022/02/22 14:14:43;;;;;;;3.42;1.50;;;;;;;;;;5061024;28;20036;-56
2022/02/22 14:17:09;;;;;;;4.50;1.70;;;;;;;;;;5061175;28;20048;-55
2022/02/22 14:19:36;;;;;;;3.97;1.58;;;;;;;;;;5064723;28;20393;-52
2022/02/22 14:22:02;;;;;;;3.47;1.30;;;;;;;;;;5066394;28;20040;-55
2022/02/22 14:24:28;;;;;;;4.10;1.10;;;;;;;;;;5069171;28;20101;-56
2022/02/22 14:26:54;;;;;;;4.22;1.50;;;;;;;;;;5067009;28;20043;-55
2022/02/22 14:29:20;;;;;;;4.80;1.58;;;;;;;;;;5066684;28;20044;-55
2022/02/22 14:31:46;;;;;;;4.40;1.65;;;;;;;;;;5067356;28;20020;-56
2022/02/22 14:34:12;;;;;;;1.92;0.98;;;;;;;;;;5067150;28;20020;-56
2022/02/22 14:36:39;;;;;;;4.13;1.33;;;;;;;;;;5067802;28;20774;-55
2022/02/22 14:39:06;;;;;;;6.35;2.00;;;;;;;;;;5066605;28;20052;-56